Fairfield, Idaho
Current Conditions -  °F | °C
As of 10:47 PM on Wednesday 17 Dec 2014 (Local Time) from KSUN Reporting Station
Overcast Overcast  
Wind Chill: 17°   Ceiling: 6500
Heat Index: 27°   Visibility: 10mi
Dew Point: 23°   Wind: 10mph
Humidity: 86%   Direction: 320°NW
Pressure: 30.04"   Gusts: NA
Location:  43.35°N, 114.79°W
Report Text: KSUN 180547Z 32009KT 10SM OVC065 M03/M05 A3004
Loading
Personal Weather Stations






























Interactive Weather Map New forecast layout! Learn more

10-Day Weather Forecast

Advertisements
Track Severe Weather on mobile